EZY27A LIPZ-LDZA
Flight info
| Callsign | EZY27A |
|---|---|
| Flight time | 0h 33m |
| Altitude | 25000 |
| Route | ROSKA T132 ROTAR DCT NAKIT DCT KOTOR |
| Aircraft | A320/M-SDE3FGHIRWY/LB1 |
Departure
| Time | 2026-05-07 12:03 |
|---|---|
| Airport | Venice Marco Polo Airport (LIPZ) |
Arrival
| Time | 2026-05-07 12:36 |
|---|---|
| Airport | Zagreb Franjo Tuđman International Airport (LDZA) |
| Time | Latitude | Longitude | Altitude | Speed | Heading |
|---|---|---|---|---|---|
| 2026-05-07 12:02 | 45.43536 | 12.25988 | 4368 ft | 257 kts | 214° |
| 2026-05-07 12:03 | 45.41882 | 12.24955 | 5323 ft | 263 kts | 195° |
| 2026-05-07 12:03 | 45.40045 | 12.24712 | 6278 ft | 269 kts | 178° |
| 2026-05-07 12:03 | 45.38202 | 12.25278 | 7149 ft | 275 kts | 160° |
| 2026-05-07 12:03 | 45.36547 | 12.26624 | 8005 ft | 282 kts | 143° |
| 2026-05-07 12:04 | 45.35217 | 12.28719 | 8832 ft | 291 kts | 124° |
| 2026-05-07 12:04 | 45.34233 | 12.31262 | 9666 ft | 296 kts | 121° |
| 2026-05-07 12:04 | 45.33235 | 12.33867 | 10286 ft | 308 kts | 123° |
| 2026-05-07 12:04 | 45.32127 | 12.36604 | 10547 ft | 332 kts | 122° |
| 2026-05-07 12:05 | 45.30989 | 12.39584 | 10819 ft | 353 kts | 120° |
| 2026-05-07 12:05 | 45.29898 | 12.42759 | 11438 ft | 361 kts | 117° |
| 2026-05-07 12:05 | 45.28792 | 12.45976 | 12163 ft | 364 kts | 122° |
| 2026-05-07 12:05 | 45.27488 | 12.49079 | 12895 ft | 367 kts | 124° |
| 2026-05-07 12:06 | 45.26118 | 12.52167 | 13633 ft | 370 kts | 126° |
| 2026-05-07 12:06 | 45.24710 | 12.55249 | 14294 ft | 375 kts | 123° |
| 2026-05-07 12:06 | 45.23613 | 12.58640 | 14907 ft | 383 kts | 109° |
| 2026-05-07 12:06 | 45.23149 | 12.62342 | 15505 ft | 391 kts | 94° |
| 2026-05-07 12:07 | 45.23396 | 12.66206 | 16107 ft | 398 kts | 77° |
| 2026-05-07 12:07 | 45.24377 | 12.69891 | 16695 ft | 403 kts | 60° |
| 2026-05-07 12:07 | 45.25919 | 12.73222 | 17280 ft | 407 kts | 54° |
| 2026-05-07 12:07 | 45.27510 | 12.76570 | 17868 ft | 411 kts | 58° |
| 2026-05-07 12:08 | 45.28716 | 12.80272 | 18416 ft | 416 kts | 74° |
| 2026-05-07 12:08 | 45.29264 | 12.84317 | 18907 ft | 418 kts | 88° |
| 2026-05-07 12:08 | 45.29223 | 12.88454 | 19410 ft | 419 kts | 99° |
| 2026-05-07 12:08 | 45.28639 | 12.92501 | 19909 ft | 419 kts | 111° |
| 2026-05-07 12:09 | 45.27524 | 12.96302 | 20428 ft | 416 kts | 123° |
| 2026-05-07 12:09 | 45.26253 | 13.00015 | 20948 ft | 424 kts | 115° |
| 2026-05-07 12:09 | 45.25453 | 13.04104 | 21457 ft | 433 kts | 107° |
| 2026-05-07 12:09 | 45.24814 | 13.08297 | 21957 ft | 437 kts | 107° |
| 2026-05-07 12:10 | 45.24158 | 13.12527 | 22429 ft | 440 kts | 108° |
| 2026-05-07 12:10 | 45.23477 | 13.16787 | 22891 ft | 444 kts | 108° |
| 2026-05-07 12:10 | 45.22774 | 13.21071 | 23345 ft | 447 kts | 109° |
| 2026-05-07 12:10 | 45.22056 | 13.25379 | 23757 ft | 451 kts | 109° |
| 2026-05-07 12:11 | 45.21325 | 13.29723 | 24132 ft | 454 kts | 109° |
| 2026-05-07 12:11 | 45.20591 | 13.34077 | 24506 ft | 456 kts | 109° |
| 2026-05-07 12:11 | 45.19852 | 13.38469 | 24863 ft | 459 kts | 109° |
| 2026-05-07 12:11 | 45.19281 | 13.47191 | 25021 ft | 475 kts | 91° |
| 2026-05-07 12:12 | 45.20334 | 13.56520 | 25015 ft | 480 kts | 83° |
| 2026-05-07 12:12 | 45.21528 | 13.65828 | 25013 ft | 480 kts | 83° |
| 2026-05-07 12:12 | 45.22687 | 13.75139 | 25012 ft | 480 kts | 83° |
| 2026-05-07 12:12 | 45.23854 | 13.84484 | 25024 ft | 480 kts | 83° |
| 2026-05-07 12:13 | 45.25026 | 13.93809 | 25015 ft | 480 kts | 83° |
| 2026-05-07 12:13 | 45.26185 | 14.03127 | 25018 ft | 479 kts | 84° |
| 2026-05-07 12:13 | 45.27328 | 14.12444 | 25021 ft | 479 kts | 84° |
| 2026-05-07 12:13 | 45.28462 | 14.21759 | 25031 ft | 478 kts | 84° |
| 2026-05-07 12:14 | 45.29589 | 14.31042 | 25020 ft | 477 kts | 84° |
| 2026-05-07 12:14 | 45.30713 | 14.40324 | 25015 ft | 477 kts | 84° |
| 2026-05-07 12:14 | 45.31823 | 14.49605 | 25012 ft | 476 kts | 84° |
| 2026-05-07 12:14 | 45.32924 | 14.58897 | 25015 ft | 476 kts | 84° |
| 2026-05-07 12:15 | 45.33701 | 14.65494 | 25012 ft | 476 kts | 84° |
| 2026-05-07 12:15 | 45.34244 | 14.70131 | 25013 ft | 476 kts | 84° |
| 2026-05-07 12:15 | 45.34786 | 14.74766 | 25013 ft | 476 kts | 84° |
| 2026-05-07 12:15 | 45.35328 | 14.79415 | 25008 ft | 476 kts | 84° |
| 2026-05-07 12:16 | 45.35869 | 14.84055 | 25011 ft | 476 kts | 84° |
| 2026-05-07 12:16 | 45.36409 | 14.88689 | 25009 ft | 475 kts | 84° |
| 2026-05-07 12:16 | 45.36945 | 14.93319 | 24675 ft | 473 kts | 84° |
| 2026-05-07 12:16 | 45.37474 | 14.97927 | 24426 ft | 471 kts | 84° |
| 2026-05-07 12:17 | 45.37992 | 15.02456 | 24198 ft | 469 kts | 84° |
| 2026-05-07 12:17 | 45.38511 | 15.07030 | 23964 ft | 468 kts | 84° |
| 2026-05-07 12:17 | 45.39029 | 15.11588 | 23728 ft | 466 kts | 84° |
| 2026-05-07 12:17 | 45.39546 | 15.16123 | 23474 ft | 463 kts | 84° |
| 2026-05-07 12:18 | 45.40060 | 15.20639 | 23187 ft | 461 kts | 84° |
| 2026-05-07 12:18 | 45.40567 | 15.25129 | 22915 ft | 458 kts | 84° |
| 2026-05-07 12:18 | 45.41068 | 15.29600 | 22634 ft | 455 kts | 84° |
| 2026-05-07 12:18 | 45.41563 | 15.34034 | 22352 ft | 453 kts | 84° |
| 2026-05-07 12:19 | 45.42053 | 15.38441 | 21969 ft | 448 kts | 84° |
| 2026-05-07 12:19 | 45.42535 | 15.42802 | 21439 ft | 443 kts | 84° |
| 2026-05-07 12:19 | 45.43026 | 15.47108 | 20919 ft | 439 kts | 81° |
| 2026-05-07 12:19 | 45.43909 | 15.51274 | 20427 ft | 438 kts | 69° |
| 2026-05-07 12:20 | 45.44795 | 15.53843 | 20106 ft | 437 kts | 61° |
| 2026-05-07 12:20 | 45.46560 | 15.57350 | 19644 ft | 434 kts | 49° |
| 2026-05-07 12:20 | 45.48614 | 15.60477 | 19164 ft | 430 kts | 51° |
| 2026-05-07 12:20 | 45.50145 | 15.64074 | 18716 ft | 422 kts | 68° |
| 2026-05-07 12:21 | 45.51371 | 15.67851 | 18200 ft | 417 kts | 65° |
| 2026-05-07 12:21 | 45.52668 | 15.71512 | 17170 ft | 412 kts | 65° |
| 2026-05-07 12:21 | 45.53962 | 15.75152 | 16037 ft | 410 kts | 65° |
| 2026-05-07 12:21 | 45.55241 | 15.78773 | 14934 ft | 408 kts | 65° |
| 2026-05-07 12:22 | 45.56506 | 15.82382 | 13888 ft | 405 kts | 65° |
| 2026-05-07 12:22 | 45.57747 | 15.85962 | 12773 ft | 400 kts | 65° |
| 2026-05-07 12:22 | 45.58941 | 15.89450 | 12286 ft | 379 kts | 65° |
| 2026-05-07 12:22 | 45.60056 | 15.92721 | 12094 ft | 353 kts | 65° |
| 2026-05-07 12:23 | 45.61076 | 15.95726 | 12009 ft | 329 kts | 65° |
| 2026-05-07 12:23 | 45.62063 | 15.98630 | 12025 ft | 322 kts | 65° |
| 2026-05-07 12:23 | 45.63039 | 16.01504 | 12027 ft | 321 kts | 65° |
| 2026-05-07 12:23 | 45.64013 | 16.04376 | 12028 ft | 321 kts | 65° |
| 2026-05-07 12:24 | 45.64985 | 16.07247 | 11988 ft | 321 kts | 65° |
| 2026-05-07 12:24 | 45.65952 | 16.10115 | 11474 ft | 318 kts | 65° |
| 2026-05-07 12:24 | 45.66902 | 16.12955 | 10976 ft | 315 kts | 65° |
| 2026-05-07 12:24 | 45.67833 | 16.15771 | 10480 ft | 312 kts | 65° |
| 2026-05-07 12:25 | 45.68745 | 16.18565 | 9928 ft | 308 kts | 65° |
| 2026-05-07 12:25 | 45.69638 | 16.21334 | 9320 ft | 305 kts | 65° |
| 2026-05-07 12:25 | 45.70515 | 16.24071 | 8722 ft | 301 kts | 65° |
| 2026-05-07 12:25 | 45.71382 | 16.26784 | 8132 ft | 298 kts | 65° |
| 2026-05-07 12:26 | 45.72239 | 16.29463 | 7541 ft | 295 kts | 65° |
| 2026-05-07 12:26 | 45.73088 | 16.32121 | 6952 ft | 292 kts | 65° |
| 2026-05-07 12:26 | 45.73929 | 16.34745 | 6367 ft | 289 kts | 65° |
| 2026-05-07 12:26 | 45.74901 | 16.37229 | 5745 ft | 283 kts | 50° |
| 2026-05-07 12:27 | 45.76197 | 16.39321 | 5147 ft | 278 kts | 46° |
| 2026-05-07 12:27 | 45.77504 | 16.41291 | 4553 ft | 274 kts | 45° |
| 2026-05-07 12:27 | 45.78813 | 16.43231 | 4117 ft | 263 kts | 45° |
| 2026-05-07 12:27 | 45.80040 | 16.45031 | 3970 ft | 243 kts | 45° |
| 2026-05-07 12:28 | 45.81197 | 16.46721 | 3663 ft | 234 kts | 45° |
| 2026-05-07 12:28 | 45.82344 | 16.48351 | 3510 ft | 231 kts | 38° |
| 2026-05-07 12:28 | 45.83738 | 16.49371 | 3508 ft | 222 kts | 11° |
| 2026-05-07 12:28 | 45.85232 | 16.49386 | 3509 ft | 217 kts | 343° |
| 2026-05-07 12:29 | 45.86562 | 16.48455 | 3505 ft | 213 kts | 317° |
| 2026-05-07 12:29 | 45.87438 | 16.46864 | 3496 ft | 197 kts | 291° |
| 2026-05-07 12:29 | 45.87830 | 16.45035 | 3497 ft | 189 kts | 282° |
| 2026-05-07 12:29 | 45.88160 | 16.43209 | 3496 ft | 188 kts | 282° |
| 2026-05-07 12:30 | 45.88492 | 16.41394 | 3501 ft | 187 kts | 282° |
| 2026-05-07 12:30 | 45.88825 | 16.39587 | 3499 ft | 187 kts | 282° |
| 2026-05-07 12:30 | 45.89158 | 16.37775 | 3500 ft | 187 kts | 282° |
| 2026-05-07 12:30 | 45.89487 | 16.35990 | 3502 ft | 187 kts | 282° |
| 2026-05-07 12:31 | 45.89811 | 16.34180 | 3500 ft | 186 kts | 277° |
| 2026-05-07 12:31 | 45.89855 | 16.32339 | 3502 ft | 184 kts | 260° |
| 2026-05-07 12:31 | 45.89512 | 16.30586 | 3504 ft | 182 kts | 243° |
| 2026-05-07 12:31 | 45.88827 | 16.29069 | 3500 ft | 181 kts | 227° |
| 2026-05-07 12:32 | 45.87961 | 16.27761 | 3502 ft | 181 kts | 226° |
| 2026-05-07 12:32 | 45.87097 | 16.26445 | 3503 ft | 181 kts | 227° |
| 2026-05-07 12:32 | 45.86246 | 16.25135 | 3504 ft | 181 kts | 227° |
| 2026-05-07 12:32 | 45.85379 | 16.23802 | 3269 ft | 182 kts | 226° |
| 2026-05-07 12:33 | 45.83674 | 16.21194 | 2788 ft | 170 kts | 226° |
| 2026-05-07 12:33 | 45.82883 | 16.19987 | 2558 ft | 161 kts | 226° |
| 2026-05-07 12:33 | 45.82132 | 16.18841 | 2351 ft | 158 kts | 226° |
| 2026-05-07 12:34 | 45.81381 | 16.17693 | 2131 ft | 158 kts | 225° |
| 2026-05-07 12:34 | 45.80634 | 16.16552 | 1916 ft | 156 kts | 225° |
| 2026-05-07 12:34 | 45.79886 | 16.15410 | 1718 ft | 157 kts | 225° |
| 2026-05-07 12:34 | 45.79138 | 16.14270 | 1502 ft | 157 kts | 225° |
| 2026-05-07 12:35 | 45.78384 | 16.13125 | 1288 ft | 158 kts | 225° |
| 2026-05-07 12:35 | 45.77646 | 16.12005 | 1073 ft | 148 kts | 225° |
| 2026-05-07 12:35 | 45.76973 | 16.10980 | 883 ft | 138 kts | 226° |
| 2026-05-07 12:35 | 45.76323 | 16.09990 | 701 ft | 135 kts | 225° |
| 2026-05-07 12:36 | 45.75682 | 16.09013 | 531 ft | 133 kts | 225° |
| 2026-05-07 12:36 | 45.75053 | 16.08039 | 367 ft | 131 kts | 226° |
| 2026-05-07 12:36 | 45.74608 | 16.07356 | 361 ft | 42 kts | 226° |
| 2026-05-07 12:36 | 45.74422 | 16.07075 | 367 ft | 36 kts | 227° |
| 2026-05-07 12:37 | 45.74255 | 16.06814 | 366 ft | 38 kts | 227° |
| 2026-05-07 12:37 | 45.74054 | 16.06513 | 363 ft | 45 kts | 226° |
| 2026-05-07 12:37 | 45.73906 | 16.06285 | 364 ft | 19 kts | 225° |
| 2026-05-07 12:37 | 45.73829 | 16.06278 | 367 ft | 12 kts | 142° |
| 2026-05-07 12:38 | 45.73758 | 16.06369 | 361 ft | 15 kts | 138° |
| 2026-05-07 12:38 | 45.73737 | 16.06388 | 361 ft | 0 kts | 159° |
| 2026-05-07 12:39 | 45.73733 | 16.06402 | 362 ft | 2 kts | 110° |
| 2026-05-07 12:39 | 45.73744 | 16.06434 | 364 ft | 8 kts | 57° |
| 2026-05-07 12:39 | 45.73780 | 16.06491 | 360 ft | 9 kts | 46° |
| 2026-05-07 12:40 | 45.73848 | 16.06593 | 359 ft | 21 kts | 46° |
| 2026-05-07 12:40 | 45.73958 | 16.06759 | 364 ft | 24 kts | 47° |
| 2026-05-07 12:40 | 45.74074 | 16.06938 | 363 ft | 26 kts | 47° |
| 2026-05-07 12:40 | 45.74189 | 16.07111 | 366 ft | 17 kts | 50° |
| 2026-05-07 12:41 | 45.74207 | 16.07213 | 361 ft | 10 kts | 120° |
| 2026-05-07 12:41 | 45.74153 | 16.07286 | 360 ft | 11 kts | 137° |
| 2026-05-07 12:41 | 45.74096 | 16.07363 | 358 ft | 11 kts | 136° |
| 2026-05-07 12:41 | 45.74063 | 16.07441 | 356 ft | 0 kts | 89° |
| 2026-05-07 12:42 | 45.74082 | 16.07495 | 357 ft | 11 kts | 49° |
| 2026-05-07 12:42 | 45.74131 | 16.07572 | 362 ft | 10 kts | 47° |
| 2026-05-07 12:42 | 45.74176 | 16.07640 | 358 ft | 9 kts | 46° |
| 2026-05-07 12:43 | 45.74187 | 16.07658 | 364 ft | 2 kts | 46° |
| 2026-05-07 12:43 | 45.74201 | 16.07678 | 360 ft | 3 kts | 46° |
| 2026-05-07 12:43 | 45.74212 | 16.07694 | 356 ft | 0 kts | 50° |
| 2026-05-07 12:43 | 45.74212 | 16.07718 | 364 ft | 0 kts | 106° |
| 2026-05-07 12:44 | 45.74209 | 16.07723 | 359 ft | 5 kts | 129° |
| 2026-05-07 12:44 | 45.74175 | 16.07761 | 360 ft | 7 kts | 135° |
| 2026-05-07 12:44 | 45.74160 | 16.07783 | 354 ft | 0 kts | 136° |